Time;durP1;ratioP1;P1;durP2;ratioP2;P2;SDS_P1;SDS_P2;PMS_P1;PMS_P2;Temp;Humidity;BMP_temperature;BMP_pressure;BME280_temperature;BME280_humidity;BME280_pressure;Samples;Min_cycle;Max_cycle;Signal;HPM_P1;HPM_P2
2022/05/23 00:01:23;;;;;;;8.10;4.80;;;16.20;99.90;;;;;;5135337;27;20230;-72
2022/05/23 00:03:51;;;;;;;4.20;3.72;;;16.20;99.90;;;;;;5135316;27;20658;-72
2022/05/23 00:06:20;;;;;;;5.47;4.13;;;16.20;99.90;;;;;;5136022;27;20558;-72
2022/05/23 00:08:50;;;;;;;4.53;4.13;;;16.10;99.90;;;;;;5138269;27;20838;-72
2022/05/23 00:11:17;;;;;;;6.43;4.00;;;16.10;99.90;;;;;;5136314;27;20685;-72
2022/05/23 00:13:45;;;;;;;4.57;3.97;;;16.10;99.90;;;;;;5135260;27;20198;-72
2022/05/23 00:16:17;;;;;;;3.80;3.40;;;16.00;99.90;;;;;;5135333;27;20240;-72
2022/05/23 00:18:44;;;;;;;4.50;4.00;;;16.00;99.90;;;;;;5135018;27;20191;-72
2022/05/23 00:21:12;;;;;;;3.87;3.40;;;16.00;99.90;;;;;;5134874;27;20258;-72
2022/05/23 00:23:39;;;;;;;4.17;3.73;;;15.90;99.90;;;;;;5135093;27;20228;-72
2022/05/23 00:26:05;;;;;;;4.77;4.10;;;15.90;99.90;;;;;;5135065;27;20202;-71
2022/05/23 00:28:32;;;;;;;4.30;3.80;;;15.80;99.90;;;;;;5135014;27;20639;-72
2022/05/23 00:30:59;;;;;;;4.10;3.70;;;15.70;99.90;;;;;;5134844;27;20232;-72
2022/05/23 00:36:12;;;;;;;4.33;3.90;;;15.60;99.90;;;;;;5134877;27;20279;-72
2022/05/23 00:38:38;;;;;;;3.67;3.30;;;15.60;99.90;;;;;;5135050;27;20286;-70
2022/05/23 00:44:00;;;;;;;5.63;3.93;;;15.50;99.90;;;;;;5134677;27;20202;-71
2022/05/23 00:46:27;;;;;;;4.50;3.90;;;15.50;99.90;;;;;;5134860;27;20298;-71
2022/05/23 00:48:54;;;;;;;4.93;4.20;;;15.50;99.90;;;;;;5134622;27;20190;-71
2022/05/23 00:51:22;;;;;;;5.37;4.50;;;15.50;99.90;;;;;;5134560;27;20235;-71
2022/05/23 00:53:52;;;;;;;6.20;4.60;;;15.50;99.90;;;;;;5134362;27;20734;-71
2022/05/23 00:56:23;;;;;;;4.43;4.03;;;15.40;99.90;;;;;;5135724;27;20592;-70
2022/05/23 00:58:54;;;;;;;4.50;4.10;;;15.30;99.90;;;;;;5135717;27;20199;-71
2022/05/23 01:01:26;;;;;;;5.30;4.30;;;15.40;99.90;;;;;;5134321;27;20240;-71
2022/05/23 01:03:52;;;;;;;5.03;4.57;;;15.30;99.90;;;;;;5134318;27;20228;-71
2022/05/23 01:06:19;;;;;;;6.23;4.57;;;15.30;99.90;;;;;;5134099;27;20722;-72
2022/05/23 01:08:50;;;;;;;5.97;4.70;;;15.20;99.90;;;;;;5134202;27;20202;-71
2022/05/23 01:11:17;;;;;;;6.67;4.73;;;15.20;99.90;;;;;;5134121;27;20199;-70
2022/05/23 01:13:43;;;;;;;5.33;4.83;;;15.10;99.90;;;;;;5134286;27;20199;-73
2022/05/23 01:16:11;;;;;;;5.70;5.10;;;15.00;99.90;;;;;;5134166;27;20275;-72
2022/05/23 01:18:38;;;;;;;7.83;5.40;;;15.00;99.90;;;;;;5134003;27;20195;-72
2022/05/23 01:21:10;;;;;;;7.47;4.97;;;14.90;99.90;;;;;;5133900;27;20214;-72
2022/05/23 01:23:45;;;;;;;4.90;4.40;;;14.90;99.90;;;;;;5133991;27;20195;-72
2022/05/23 01:26:13;;;;;;;5.17;4.43;;;14.90;99.90;;;;;;5134162;27;20256;-72
2022/05/23 01:28:42;;;;;;;5.47;4.30;;;14.90;99.90;;;;;;5134011;27;20203;-72
2022/05/23 01:31:11;;;;;;;6.70;5.17;;;14.80;99.90;;;;;;5133965;27;20196;-72
2022/05/23 01:33:38;;;;;;;5.80;4.90;;;14.80;99.90;;;;;;5133911;27;20241;-72
2022/05/23 01:36:10;;;;;;;5.63;4.33;;;14.70;99.90;;;;;;5133794;27;20191;-72
2022/05/23 01:38:37;;;;;;;5.73;4.90;;;14.70;99.90;;;;;;5134146;27;20256;-72
2022/05/23 01:41:04;;;;;;;4.93;4.53;;;14.70;99.90;;;;;;5134457;27;20218;-71
2022/05/23 01:43:33;;;;;;;5.87;5.27;;;14.60;99.90;;;;;;5136773;28;20206;-71
2022/05/23 01:45:59;;;;;;;9.20;5.40;;;14.50;99.90;;;;;;5139332;28;20199;-71
2022/05/23 01:48:27;;;;;;;6.00;5.20;;;14.40;99.90;;;;;;5134896;28;20651;-72
2022/05/23 01:50:53;;;;;;;5.80;5.30;;;14.40;99.90;;;;;;5134658;28;20716;-72
2022/05/23 01:53:20;;;;;;;6.07;5.47;;;14.40;99.90;;;;;;5134279;28;20191;-71
2022/05/23 01:55:47;;;;;;;6.87;5.73;;;14.40;99.90;;;;;;5134463;28;20199;-72
2022/05/23 01:58:13;;;;;;;7.40;5.70;;;14.40;99.90;;;;;;5134035;28;20654;-72
2022/05/23 02:03:28;;;;;;;7.93;5.40;;;14.30;99.90;;;;;;5092993;28;20203;-72
2022/05/23 02:05:54;;;;;;;5.60;5.10;;;14.20;99.90;;;;;;5092790;28;20253;-72
2022/05/23 02:08:21;;;;;;;7.27;6.17;;;14.10;99.90;;;;;;5092603;28;20249;-72
2022/05/23 02:10:48;;;;;;;6.30;5.70;;;14.00;99.90;;;;;;5092672;28;20250;-72
2022/05/23 02:13:14;;;;;;;7.33;6.43;;;13.90;99.90;;;;;;5092513;28;20192;-72
2022/05/23 02:15:42;;;;;;;8.20;6.03;;;13.80;99.90;;;;;;5092431;28;20192;-72
2022/05/23 02:18:09;;;;;;;6.97;6.23;;;13.90;99.90;;;;;;5096454;28;20261;-72
2022/05/23 02:20:36;;;;;;;6.60;5.73;;;13.90;99.90;;;;;;5096568;28;20242;-72
2022/05/23 02:23:02;;;;;;;12.10;5.93;;;13.90;99.90;;;;;;5096355;28;20228;-72
2022/05/23 02:25:29;;;;;;;7.40;6.10;;;13.80;99.90;;;;;;5096339;28;20196;-72
2022/05/23 02:27:57;;;;;;;10.37;6.70;;;13.80;99.90;;;;;;5096314;28;20193;-72
2022/05/23 02:30:24;;;;;;;8.40;6.57;;;13.70;99.90;;;;;;5096190;28;20200;-71
2022/05/23 02:32:53;;;;;;;8.43;6.53;;;13.70;99.90;;;;;;5096414;28;20196;-72
2022/05/23 02:35:20;;;;;;;9.23;6.87;;;13.70;99.90;;;;;;5096268;28;20203;-72
2022/05/23 02:37:48;;;;;;;10.47;6.77;;;13.60;99.90;;;;;;5095971;28;20651;-70
2022/05/23 02:40:15;;;;;;;7.17;6.57;;;13.50;99.90;;;;;;5096183;28;20688;-70
2022/05/23 02:42:43;;;;;;;7.73;6.63;;;13.50;99.90;;;;;;5095972;28;20316;-70
2022/05/23 02:45:10;;;;;;;8.47;6.60;;;13.50;99.90;;;;;;5096021;28;20671;-70
2022/05/23 02:47:37;;;;;;;10.70;6.97;;;13.40;99.90;;;;;;5095803;28;20648;-70
2022/05/23 02:50:08;;;;;;;7.40;6.70;;;13.40;99.90;;;;;;5095951;28;20196;-71
2022/05/23 02:52:35;;;;;;;9.20;6.60;;;13.30;99.90;;;;;;5096050;28;20208;-71
2022/05/23 02:55:01;;;;;;;8.67;6.60;;;13.30;99.90;;;;;;5095727;28;20196;-70
2022/05/23 02:57:28;;;;;;;7.17;6.33;;;13.20;99.90;;;;;;5095774;28;20594;-70
2022/05/23 02:59:55;;;;;;;7.77;6.97;;;13.20;99.90;;;;;;5095834;28;20276;-73
2022/05/23 03:05:09;;;;;;;8.67;7.17;;;13.20;99.90;;;;;;5136885;27;20560;-71
2022/05/23 03:07:35;;;;;;;7.70;6.93;;;13.20;99.90;;;;;;5136497;27;20195;-71
2022/05/23 03:10:03;;;;;;;7.57;6.87;;;13.10;99.90;;;;;;5136308;27;20199;-70
2022/05/23 03:12:30;;;;;;;7.93;7.00;;;13.10;99.90;;;;;;5136457;27;20203;-71
2022/05/23 03:14:56;;;;;;;8.10;7.37;;;13.10;99.90;;;;;;5136452;27;20268;-71
2022/05/23 03:17:23;;;;;;;10.33;7.07;;;13.00;99.90;;;;;;5136286;27;20256;-71
2022/05/23 03:19:50;;;;;;;12.17;7.43;;;13.00;99.90;;;;;;5136369;27;20199;-71
2022/05/23 03:27:46;;;;;;;8.37;7.57;;;13.00;99.90;;;;;;5134963;27;20198;-72
2022/05/23 03:30:13;;;;;;;8.70;7.83;;;12.90;99.90;;;;;;5136128;27;20195;-72
2022/05/23 03:32:41;;;;;;;8.43;7.47;;;12.90;99.90;;;;;;5136020;27;20224;-72
2022/05/23 03:35:08;;;;;;;8.13;7.33;;;12.90;99.90;;;;;;5135981;27;20199;-72
2022/05/23 03:37:37;;;;;;;9.47;8.07;;;12.90;99.90;;;;;;5136019;27;20239;-72
2022/05/23 03:40:04;;;;;;;8.53;7.73;;;12.90;99.90;;;;;;5135735;27;20658;-72
2022/05/23 03:42:31;;;;;;;8.50;7.50;;;12.90;99.90;;;;;;5135746;27;20616;-72
2022/05/23 03:44:57;;;;;;;8.30;7.60;;;12.90;99.90;;;;;;5135686;27;20199;-72
2022/05/23 03:47:24;;;;;;;8.37;7.50;;;12.90;99.90;;;;;;5135524;27;20240;-72
2022/05/23 03:49:51;;;;;;;9.67;7.77;;;12.90;99.90;;;;;;5135826;27;20203;-72
2022/05/23 03:52:18;;;;;;;9.13;8.23;;;12.90;99.90;;;;;;5135682;27;20199;-72
2022/05/23 03:54:46;;;;;;;8.60;7.67;;;12.90;99.90;;;;;;5135571;27;20191;-70
2022/05/23 03:57:12;;;;;;;11.43;8.43;;;12.90;99.90;;;;;;5135403;27;20206;-71
2022/05/23 03:59:39;;;;;;;11.87;8.07;;;13.00;99.90;;;;;;5135469;27;20651;-70
2022/05/23 04:02:06;;;;;;;9.13;7.37;;;13.00;99.90;;;;;;5135250;27;20233;-71
2022/05/23 04:04:33;;;;;;;7.60;6.80;;;13.10;99.90;;;;;;5135395;27;20703;-70
2022/05/23 04:07:01;;;;;;;7.83;7.10;;;13.10;99.90;;;;;;5135596;27;20203;-76
2022/05/23 04:09:28;;;;;;;8.93;7.00;;;13.10;99.90;;;;;;5135501;27;20198;-71
2022/05/23 04:11:56;;;;;;;7.33;6.63;;;13.20;99.90;;;;;;5136380;27;20198;-70
2022/05/23 04:14:23;;;;;;;9.27;7.07;;;13.20;99.90;;;;;;5137409;27;20249;-70
2022/05/23 04:16:50;;;;;;;8.37;7.03;;;13.20;99.90;;;;;;5136658;27;20698;-70
2022/05/23 04:19:17;;;;;;;8.07;7.27;;;13.20;99.90;;;;;;5135310;27;20199;-72
2022/05/23 04:21:45;;;;;;;8.00;7.20;;;13.30;99.90;;;;;;5135332;27;20230;-70
2022/05/23 04:24:13;;;;;;;9.67;6.93;;;13.30;99.90;;;;;;5135042;27;20199;-70
2022/05/23 04:26:40;;;;;;;10.33;7.47;;;13.30;99.90;;;;;;5134821;27;20646;-71
2022/05/23 04:29:08;;;;;;;13.73;8.13;;;13.40;99.90;;;;;;5134919;27;20658;-71
2022/05/23 04:31:35;;;;;;;10.37;8.00;;;13.40;99.90;;;;;;5135220;27;20195;-71
2022/05/23 04:36:47;;;;;;;9.57;7.73;;;13.60;99.90;;;;;;5134811;27;20193;-72
2022/05/23 04:39:13;;;;;;;15.27;8.20;;;13.60;99.90;;;;;;5134319;27;20197;-71
2022/05/23 04:41:41;;;;;;;9.97;7.80;;;13.70;99.90;;;;;;5134423;27;20230;-71
2022/05/23 04:44:10;;;;;;;9.43;7.07;;;13.70;99.90;;;;;;5134848;27;20195;-71
2022/05/23 04:46:36;;;;;;;9.30;7.17;;;13.90;99.90;;;;;;5134749;27;20222;-72
2022/05/23 04:49:49;;;;;;;10.47;6.80;;;14.00;99.90;;;;;;5134369;27;20248;-71
2022/05/23 04:52:19;;;;;;;10.50;6.70;;;14.20;99.90;;;;;;5135194;27;20187;-71
2022/05/23 04:55:00;;;;;;;15.33;6.80;;;14.30;99.90;;;;;;5135158;27;20195;-71
2022/05/23 04:57:27;;;;;;;7.37;6.67;;;14.50;99.90;;;;;;5135163;27;20554;-72
2022/05/23 04:59:55;;;;;;;10.47;6.80;;;14.70;99.90;;;;;;5135121;27;20275;-72
2022/05/23 05:02:22;;;;;;;9.60;7.07;;;14.90;99.90;;;;;;5135064;27;20685;-72
2022/05/23 05:04:49;;;;;;;8.50;6.90;;;15.20;99.90;;;;;;5136764;27;20588;-70
2022/05/23 05:07:15;;;;;;;6.90;5.63;;;15.40;99.90;;;;;;5139642;27;20202;-73
2022/05/23 05:09:42;;;;;;;7.90;5.30;;;15.60;99.90;;;;;;5136396;27;20202;-72
2022/05/23 05:12:09;;;;;;;5.60;4.70;;;15.90;99.90;;;;;;5147665;27;20195;-71
2022/05/23 05:14:36;;;;;;;5.57;4.50;;;16.10;99.90;;;;;;5148695;27;20219;-72
2022/05/23 05:17:04;;;;;;;8.90;4.80;;;16.10;99.90;;;;;;5134120;27;20283;-72
2022/05/23 05:19:32;;;;;;;5.90;4.60;;;16.10;99.90;;;;;;5134207;27;20195;-72
2022/05/23 05:21:59;;;;;;;8.20;5.07;;;16.20;99.90;;;;;;5133870;27;20678;-72
2022/05/23 05:24:26;;;;;;;6.03;4.70;;;16.10;99.90;;;;;;5133892;27;20244;-72
2022/05/23 05:26:55;;;;;;;7.05;4.43;;;16.00;99.90;;;;;;5133881;27;20256;-72
2022/05/23 05:29:22;;;;;;;5.13;4.30;;;16.00;99.90;;;;;;5133837;27;20191;-72
2022/05/23 05:31:53;;;;;;;5.03;4.10;;;15.90;99.90;;;;;;5133561;27;20247;-72
2022/05/23 05:34:25;;;;;;;5.90;4.60;;;15.90;99.90;;;;;;5133874;27;20703;-71
2022/05/23 05:36:54;;;;;;;7.65;4.65;;;15.80;99.90;;;;;;5133731;27;20234;-71
2022/05/23 05:39:26;;;;;;;7.27;4.47;;;15.70;99.90;;;;;;5133579;27;20718;-70
2022/05/23 05:41:56;;;;;;;6.60;4.68;;;15.60;99.90;;;;;;5133473;27;20198;-71
2022/05/23 05:44:28;;;;;;;8.80;5.50;;;15.40;99.90;;;;;;5133920;27;20191;-71
2022/05/23 05:47:00;;;;;;;8.87;5.90;;;15.10;99.90;;;;;;5133605;28;20207;-71
2022/05/23 05:49:32;;;;;;;6.80;5.80;;;14.80;99.90;;;;;;5133725;28;20541;-75
2022/05/23 05:52:01;;;;;;;8.27;5.73;;;14.50;99.90;;;;;;5136027;27;20198;-75
2022/05/23 05:54:30;;;;;;;7.67;6.20;;;14.10;99.90;;;;;;5137951;27;20199;-77
2022/05/23 05:57:00;;;;;;;8.30;6.10;;;13.90;99.90;;;;;;5138234;27;20203;-76
2022/05/23 05:59:28;;;;;;;8.70;6.10;;;13.60;99.90;;;;;;5137925;27;20194;-77
2022/05/23 06:01:55;;;;;;;8.80;6.70;;;13.50;99.90;;;;;;5137432;27;20624;-75
2022/05/23 06:04:21;;;;;;;8.63;6.63;;;13.40;99.90;;;;;;5137638;27;20195;-76
2022/05/23 06:12:18;;;;;;;10.43;7.73;;;13.40;99.90;;;;;;5137720;27;20245;-75
2022/05/23 06:14:45;;;;;;;8.50;7.50;;;13.20;99.90;;;;;;5137567;27;20191;-78
2022/05/23 06:17:12;;;;;;;10.13;9.10;;;13.00;99.90;;;;;;5137378;27;20198;-78
2022/05/23 06:19:40;;;;;;;14.43;10.57;;;12.80;99.90;;;;;;5137727;27;20191;-80
2022/05/23 06:22:08;;;;;;;14.63;11.70;;;12.70;99.90;;;;;;5141059;27;20199;-80
2022/05/23 06:24:35;;;;;;;13.87;12.10;;;12.80;99.90;;;;;;5138514;27;20194;-78
2022/05/23 06:27:03;;;;;;;16.60;12.77;;;13.00;99.90;;;;;;5137135;27;20203;-79
2022/05/23 06:29:30;;;;;;;17.60;13.27;;;12.90;99.90;;;;;;5137358;27;20203;-79
2022/05/23 06:31:57;;;;;;;17.03;12.90;;;12.70;99.90;;;;;;5137216;27;20236;-78
2022/05/23 06:34:23;;;;;;;23.20;14.47;;;12.50;99.90;;;;;;5137970;27;20239;-83
2022/05/23 06:36:50;;;;;;;15.33;13.80;;;12.60;99.90;;;;;;5139766;27;20252;-77
2022/05/23 06:39:18;;;;;;;20.00;14.80;;;12.80;99.90;;;;;;5119639;27;20195;-75
2022/05/23 06:41:45;;;;;;;23.20;17.67;;;13.00;99.90;;;;;;5153845;27;20241;-75
2022/05/23 06:44:11;;;;;;;24.57;18.23;;;13.00;99.90;;;;;;5145202;27;20276;-79
2022/05/23 06:46:38;;;;;;;26.73;18.37;;;13.20;99.90;;;;;;5137038;27;20206;-82
2022/05/23 06:49:06;;;;;;;23.87;18.13;;;13.20;99.90;;;;;;5137112;27;20198;-77
2022/05/23 06:51:33;;;;;;;21.30;18.90;;;13.40;99.90;;;;;;5136733;27;20191;-81
2022/05/23 06:54:00;;;;;;;22.43;20.00;;;13.50;99.90;;;;;;5136955;27;20222;-82
2022/05/23 06:56:29;;;;;;;20.83;18.23;;;13.50;99.90;;;;;;5118671;27;20194;-81
2022/05/23 06:58:56;;;;;;;18.73;16.37;;;13.60;99.90;;;;;;5137760;27;20289;-81
2022/05/23 07:01:22;;;;;;;17.37;15.20;;;13.60;99.90;;;;;;5137623;27;20227;-82
2022/05/23 07:03:49;;;;;;;19.57;16.33;;;13.50;99.90;;;;;;5136456;27;20222;-82
2022/05/23 07:14:30;;;;;;;17.17;14.77;;;13.60;99.90;;;;;;5137872;27;20190;-83
2022/05/23 07:16:59;;;;;;;15.77;14.13;;;13.70;99.90;;;;;;5138267;27;20195;-82
2022/05/23 07:19:26;;;;;;;15.43;13.17;;;13.80;99.90;;;;;;5142740;27;20195;-82
2022/05/23 07:21:54;;;;;;;17.83;13.30;;;13.90;99.90;;;;;;5154678;27;20203;-82
2022/05/23 07:24:21;;;;;;;16.47;12.80;;;14.00;99.90;;;;;;5161941;27;20214;-82
2022/05/23 07:26:49;;;;;;;16.70;13.47;;;14.10;99.90;;;;;;5162254;27;20179;-82
2022/05/23 07:29:16;;;;;;;12.83;10.80;;;14.40;99.90;;;;;;5159831;27;20179;-83
2022/05/23 07:31:43;;;;;;;12.17;10.83;;;14.40;99.90;;;;;;5161592;27;20175;-83
2022/05/23 07:34:10;;;;;;;11.70;10.37;;;14.60;99.90;;;;;;5156924;27;20231;-85
2022/05/23 07:36:37;;;;;;;15.13;9.97;;;14.70;99.90;;;;;;5137132;27;20191;-84
2022/05/23 07:39:03;;;;;;;11.10;9.17;;;14.90;99.90;;;;;;5136987;27;20198;-84
2022/05/23 07:41:32;;;;;;;10.27;8.83;;;14.90;99.90;;;;;;5136467;27;20194;-84
2022/05/23 07:44:00;;;;;;;11.17;7.80;;;15.00;99.90;;;;;;5136127;27;20223;-83
2022/05/23 07:46:26;;;;;;;9.07;8.10;;;15.00;99.90;;;;;;5136102;27;20718;-83
2022/05/23 07:48:53;;;;;;;8.33;7.50;;;15.10;99.90;;;;;;5136115;27;20195;-82
2022/05/23 07:51:22;;;;;;;9.20;7.50;;;15.10;99.90;;;;;;5136046;27;20195;-82
2022/05/23 08:02:04;;;;;;;7.78;6.97;;;16.00;99.90;;;;;;5135310;27;20299;-78
2022/05/23 08:04:31;;;;;;;6.88;6.28;;;16.40;99.90;;;;;;5135877;27;20237;-78
2022/05/23 08:06:58;;;;;;;6.28;5.63;;;16.70;99.90;;;;;;5135211;27;20195;-77
2022/05/23 08:09:25;;;;;;;6.55;5.95;;;16.80;99.90;;;;;;5116801;27;20286;-76
2022/05/23 08:11:53;;;;;;;5.97;5.47;;;17.20;99.90;;;;;;5135006;27;20690;-76
2022/05/23 08:14:22;;;;;;;6.18;5.53;;;17.30;99.90;;;;;;5134447;27;20549;-74
2022/05/23 08:16:50;;;;;;;9.07;6.45;;;17.30;99.90;;;;;;5135220;27;20773;-74
2022/05/23 08:19:16;;;;;;;6.82;5.45;;;17.30;99.90;;;;;;5135513;27;20240;-73
2022/05/23 08:21:48;;;;;;;7.60;6.43;;;17.50;99.90;;;;;;5135929;27;20273;-73
2022/05/23 08:24:14;;;;;;;6.30;5.38;;;17.50;99.90;;;;;;5135589;27;20273;-74
2022/05/23 08:26:42;;;;;;;7.90;6.03;;;17.70;99.90;;;;;;5136275;27;20194;-73
2022/05/23 08:29:09;;;;;;;7.05;5.25;;;18.00;99.90;;;;;;5152723;27;20183;-73
2022/05/23 08:31:37;;;;;;;6.80;5.47;;;18.00;99.90;;;;;;5153295;27;20183;-71
2022/05/23 08:34:07;;;;;;;6.95;5.75;;;18.00;99.90;;;;;;5153758;27;20195;-72
2022/05/23 08:36:34;;;;;;;7.05;5.32;;;17.90;99.90;;;;;;5144086;27;20203;-73
2022/05/23 08:39:02;;;;;;;6.53;5.45;;;17.80;99.90;;;;;;5134611;27;20551;-72
2022/05/23 08:41:32;;;;;;;6.20;5.60;;;17.80;99.90;;;;;;5134968;27;20248;-73
2022/05/23 08:44:15;;;;;;;5.93;5.32;;;17.90;99.90;;;;;;5134658;27;20219;-72
2022/05/23 08:46:50;;;;;;;6.80;5.07;;;18.20;99.90;;;;;;5134686;27;20232;-72
2022/05/23 08:49:32;;;;;;;6.78;5.55;;;18.30;99.90;;;;;;5134525;27;20269;-73
2022/05/23 08:52:07;;;;;;;9.95;5.25;;;18.60;99.90;;;;;;5134648;27;20290;-72
2022/05/23 08:54:43;;;;;;;7.50;5.40;;;18.80;99.90;;;;;;5134648;27;20230;-72
2022/05/23 08:57:18;;;;;;;5.75;5.25;;;19.10;99.90;;;;;;5134513;27;20198;-72
2022/05/23 08:59:49;;;;;;;9.13;4.90;;;19.40;99.90;;;;;;5134266;27;20726;-72
2022/05/23 09:02:23;;;;;;;7.25;5.57;;;20.00;99.90;;;;;;5134035;27;20234;-72
2022/05/23 09:04:55;;;;;;;6.28;5.10;;;20.50;99.90;;;;;;5134129;27;20745;-72
2022/05/23 09:07:28;;;;;;;7.72;5.07;;;20.60;99.90;;;;;;5134366;27;20206;-72
2022/05/23 09:09:59;;;;;;;6.25;5.18;;;20.90;99.90;;;;;;5134205;27;20232;-72
2022/05/23 09:12:26;;;;;;;6.53;5.18;;;21.10;99.90;;;;;;5134199;27;20202;-72
2022/05/23 09:14:54;;;;;;;6.88;5.53;;;21.00;99.90;;;;;;5134379;27;20209;-71
2022/05/23 09:17:26;;;;;;;8.13;4.88;;;21.10;99.90;;;;;;5134196;27;20191;-73
2022/05/23 09:20:00;;;;;;;5.47;4.97;;;21.30;99.90;;;;;;5134514;27;20198;-73
2022/05/23 09:22:35;;;;;;;6.03;4.25;;;21.50;99.90;;;;;;5115613;27;20198;-73
2022/05/23 09:25:05;;;;;;;5.43;4.35;;;21.80;99.90;;;;;;5133869;27;20431;-73
2022/05/23 09:27:36;;;;;;;5.43;4.88;;;21.50;99.90;;;;;;5133903;27;20653;-73
2022/05/23 09:30:06;;;;;;;5.95;4.95;;;21.70;99.90;;;;;;5134191;27;20289;-73
2022/05/23 09:32:37;;;;;;;5.55;4.40;;;21.60;99.90;;;;;;5134061;27;20199;-72
2022/05/23 09:35:13;;;;;;;5.43;4.47;;;21.10;99.90;;;;;;5133844;27;20658;-73
2022/05/23 09:37:42;;;;;;;5.88;4.40;;;21.50;99.90;;;;;;5133812;27;20592;-73
2022/05/23 09:40:21;;;;;;;4.93;4.53;;;21.90;99.90;;;;;;5133609;27;20195;-73
2022/05/23 09:48:20;;;;;;;7.38;4.55;;;21.80;99.90;;;;;;5133809;28;20194;-73
2022/05/23 09:50:54;;;;;;;5.03;4.53;;;21.90;99.90;;;;;;5133735;28;20202;-73
2022/05/23 09:53:26;;;;;;;6.20;4.10;;;22.20;99.90;;;;;;5133752;28;20209;-74
2022/05/23 09:55:53;;;;;;;4.63;4.00;;;22.80;99.90;;;;;;5133876;28;20240;-74
2022/05/23 09:58:27;;;;;;;5.68;4.10;;;22.60;99.90;;;;;;5133413;28;20286;-73
2022/05/23 10:01:04;;;;;;;5.75;3.60;;;22.60;99.90;;;;;;5134100;28;20290;-73
2022/05/23 10:03:33;;;;;;;5.63;3.95;;;23.10;99.90;;;;;;5133995;28;20250;-73
2022/05/23 10:06:06;;;;;;;7.05;3.85;;;23.20;99.90;;;;;;5134109;28;20248;-73
2022/05/23 10:08:35;;;;;;;5.38;3.80;;;22.80;99.90;;;;;;5133660;28;20247;-74
2022/05/23 10:11:04;;;;;;;7.43;4.40;;;22.70;99.90;;;;;;5133527;28;20571;-74
2022/05/23 10:13:34;;;;;;;6.28;3.90;;;22.60;99.90;;;;;;5133655;28;20248;-74
2022/05/23 10:16:10;;;;;;;8.23;3.70;;;22.70;99.90;;;;;;5133659;28;20247;-74
2022/05/23 10:18:47;;;;;;;7.43;4.05;;;23.00;99.90;;;;;;5133484;28;20238;-73
2022/05/23 10:21:25;;;;;;;6.63;3.58;;;24.10;99.90;;;;;;5133470;28;20194;-74
2022/05/23 10:24:08;;;;;;;4.82;3.70;;;24.40;99.90;;;;;;5133589;28;20227;-74
2022/05/23 10:26:43;;;;;;;5.60;3.28;;;24.60;99.90;;;;;;5133529;28;20226;-74
2022/05/23 10:29:16;;;;;;;4.57;3.22;;;24.50;99.90;;;;;;5133410;28;20236;-74
2022/05/23 10:31:47;;;;;;;4.82;3.42;;;24.30;99.90;;;;;;5133163;28;20243;-74
2022/05/23 10:34:24;;;;;;;11.75;3.75;;;24.70;99.90;;;;;;5133368;28;20256;-74
2022/05/23 10:36:53;;;;;;;6.75;2.90;;;24.90;99.90;;;;;;5133475;27;20205;-74
2022/05/23 10:42:15;;;;;;;6.22;3.22;;;24.50;99.90;;;;;;5137048;27;20236;-74
2022/05/23 10:44:57;;;;;;;6.63;3.10;;;25.40;99.90;;;;;;5136768;27;20689;-74
2022/05/23 10:47:34;;;;;;;6.15;3.03;;;26.10;99.90;;;;;;5138477;27;20232;-74
2022/05/23 10:50:11;;;;;;;5.60;2.88;;;26.60;99.90;;;;;;5137909;27;20195;-74
2022/05/23 10:52:45;;;;;;;5.05;2.70;;;27.20;99.90;;;;;;5137150;27;20554;-75
2022/05/23 10:55:18;;;;;;;4.50;3.03;;;27.40;99.70;;;;;;5137077;27;20669;-75
2022/05/23 10:57:59;;;;;;;7.22;2.80;;;28.30;96.40;;;;;;5137007;27;20251;-75
2022/05/23 11:00:32;;;;;;;8.80;2.90;;;28.60;93.10;;;;;;5136613;27;20198;-74
2022/05/23 11:03:12;;;;;;;4.47;2.55;;;27.40;92.70;;;;;;5136305;27;20223;-74
2022/05/23 11:05:45;;;;;;;4.38;2.55;;;27.00;92.80;;;;;;5136769;27;20292;-74
2022/05/23 11:08:34;;;;;;;6.55;2.90;;;27.20;93.20;;;;;;5136744;27;20203;-72
2022/05/23 11:11:05;;;;;;;4.93;2.90;;;27.00;92.50;;;;;;5136546;27;20199;-74
2022/05/23 11:13:46;;;;;;;8.15;3.00;;;26.40;93.60;;;;;;5136751;27;20186;-75
2022/05/23 11:16:19;;;;;;;6.82;3.03;;;26.10;94.50;;;;;;5136555;27;20476;-75
2022/05/23 11:19:03;;;;;;;5.63;3.30;;;25.80;95.90;;;;;;5136628;27;20190;-74
2022/05/23 11:21:39;;;;;;;5.13;3.22;;;24.50;98.00;;;;;;5136313;27;20539;-73
2022/05/23 11:24:10;;;;;;;5.03;3.10;;;24.30;99.90;;;;;;5136457;27;20623;-72
2022/05/23 11:26:41;;;;;;;5.05;3.00;;;24.30;99.90;;;;;;5136364;27;20570;-72
2022/05/23 11:34:48;;;;;;;6.30;3.13;;;24.50;99.90;;;;;;5136533;27;20328;-73
2022/05/23 11:40:08;;;;;;;7.60;3.40;;;24.30;99.90;;;;;;5137082;27;20217;-74
2022/05/23 11:42:42;;;;;;;7.18;3.53;;;24.30;99.90;;;;;;5136917;27;20199;-73
2022/05/23 11:48:33;;;;;;;10.57;3.83;;;24.20;99.90;;;;;;5136036;27;20332;-74
2022/05/23 11:51:10;;;;;;;8.27;3.65;;;24.20;99.90;;;;;;5145604;27;20231;-73
2022/05/23 11:53:42;;;;;;;7.55;3.63;;;23.60;99.90;;;;;;5138087;27;20232;-74
2022/05/23 11:56:10;;;;;;;4.45;3.47;;;23.40;99.90;;;;;;5135955;27;20194;-74
2022/05/23 11:58:47;;;;;;;5.80;3.60;;;23.70;99.90;;;;;;5135871;27;20195;-74
2022/05/23 12:01:25;;;;;;;6.05;3.45;;;24.10;99.90;;;;;;5135519;27;20199;-74
2022/05/23 12:04:17;;;;;;;6.45;3.55;;;24.30;99.90;;;;;;5136016;27;20219;-74
2022/05/23 12:06:45;;;;;;;6.43;3.50;;;24.30;99.90;;;;;;5115685;27;20195;-73
2022/05/23 12:09:37;;;;;;;9.10;3.72;;;24.40;99.90;;;;;;5135497;27;20230;-74
2022/05/23 12:12:48;;;;;;;6.50;3.42;;;24.30;99.90;;;;;;5135529;27;20198;-73
2022/05/23 12:15:47;;;;;;;5.90;3.17;;;23.80;99.90;;;;;;5135755;27;20191;-74
2022/05/23 12:18:35;;;;;;;6.88;3.78;;;23.50;99.90;;;;;;5135260;27;20195;-74
2022/05/23 12:21:06;;;;;;;7.68;4.25;;;23.50;99.90;;;;;;5134614;27;20198;-74
2022/05/23 12:23:36;;;;;;;6.07;4.50;;;23.00;99.90;;;;;;5135000;27;20724;-74
2022/05/23 12:26:26;;;;;;;7.18;5.10;;;22.70;99.90;;;;;;5134988;27;20251;-75
2022/05/23 12:28:54;;;;;;;7.55;5.22;;;22.40;99.90;;;;;;5101191;28;20208;-73
2022/05/23 12:31:23;;;;;;;8.23;5.00;;;21.90;99.90;;;;;;5129276;27;20198;-73
2022/05/23 12:33:53;;;;;;;6.82;4.93;;;21.80;99.90;;;;;;5134446;27;20191;-72
2022/05/23 12:36:25;;;;;;;8.00;5.55;;;21.50;99.90;;;;;;5134414;27;20199;-74
2022/05/23 12:39:18;;;;;;;5.97;5.00;;;21.60;99.90;;;;;;5134658;27;20195;-74
2022/05/23 12:42:01;;;;;;;5.82;4.97;;;21.70;99.90;;;;;;5134682;27;20190;-73
2022/05/23 12:45:08;;;;;;;8.00;5.00;;;21.80;99.90;;;;;;5134671;27;20617;-74
2022/05/23 12:47:58;;;;;;;7.95;5.10;;;22.00;99.90;;;;;;5122667;27;20199;-73
2022/05/23 12:50:37;;;;;;;6.15;5.03;;;22.00;99.90;;;;;;5113562;28;20555;-73
2022/05/23 12:53:35;;;;;;;6.45;5.13;;;22.10;99.90;;;;;;5124432;27;20198;-74
2022/05/23 12:56:18;;;;;;;7.18;6.03;;;21.70;99.90;;;;;;5133211;27;20226;-74
2022/05/23 12:59:13;;;;;;;7.20;6.50;;;21.50;99.90;;;;;;5132091;27;20252;-78
2022/05/23 13:01:43;;;;;;;9.82;7.63;;;20.70;99.90;;;;;;5128248;27;20710;-78
2022/05/23 13:04:15;;;;;;;10.18;8.57;;;20.00;99.90;;;;;;5132200;27;21006;-79
2022/05/23 13:06:52;;;;;;;12.20;10.10;;;19.60;99.90;;;;;;5132437;27;20249;-78
2022/05/23 13:09:27;;;;;;;15.18;11.23;;;19.30;99.90;;;;;;5132370;27;20195;-81
2022/05/23 13:11:58;;;;;;;12.50;11.10;;;19.10;99.90;;;;;;5131957;27;20734;-78
2022/05/23 13:14:45;;;;;;;15.55;13.90;;;18.80;99.90;;;;;;5131591;27;20722;-77
2022/05/23 13:17:12;;;;;;;16.58;13.98;;;17.80;99.90;;;;;;5132005;27;20243;-76
2022/05/23 13:22:38;;;;;;;16.58;14.65;;;16.90;99.90;;;;;;5131870;27;20198;-75
2022/05/23 13:25:06;;;;;;;20.50;16.40;;;16.80;99.90;;;;;;5113291;27;20237;-75
2022/05/23 13:27:37;;;;;;;21.40;18.52;;;16.90;99.90;;;;;;5131585;27;20202;-74
2022/05/23 13:30:08;;;;;;;23.15;19.25;;;17.10;99.90;;;;;;5131477;27;20202;-75
2022/05/23 13:32:36;;;;;;;24.55;19.58;;;17.20;99.90;;;;;;5131820;27;20195;-75
2022/05/23 13:35:18;;;;;;;22.13;18.75;;;17.40;99.90;;;;;;5131001;27;20209;-75
2022/05/23 13:37:46;;;;;;;21.65;19.23;;;17.60;99.90;;;;;;5131421;27;20207;-78
2022/05/23 13:40:18;;;;;;;21.63;18.13;;;18.00;99.90;;;;;;5131598;27;20420;-77
2022/05/23 13:42:44;;;;;;;21.70;17.85;;;18.10;99.90;;;;;;5131582;27;20329;-71
2022/05/23 13:45:16;;;;;;;22.63;16.50;;;18.10;99.90;;;;;;5131155;27;20765;-77
2022/05/23 13:47:46;;;;;;;16.58;14.02;;;18.40;99.90;;;;;;5131666;27;20553;-73
2022/05/23 13:50:17;;;;;;;15.23;13.80;;;18.40;99.90;;;;;;5131172;28;20199;-76
2022/05/23 13:52:49;;;;;;;15.15;13.52;;;18.50;99.90;;;;;;5131007;28;20263;-76
2022/05/23 13:55:20;;;;;;;13.20;11.82;;;18.60;99.90;;;;;;5131178;28;20223;-77
2022/05/23 13:57:53;;;;;;;15.57;11.40;;;18.10;99.90;;;;;;5131525;28;20195;-77
2022/05/23 14:00:24;;;;;;;11.20;10.10;;;18.00;99.90;;;;;;5132423;28;20251;-78
2022/05/23 14:02:56;;;;;;;11.77;10.10;;;18.20;99.90;;;;;;5118713;28;20227;-77
2022/05/23 14:05:26;;;;;;;9.98;8.98;;;18.10;99.90;;;;;;5131180;28;20263;-78